sensor_id;sensor_type;location;lat;lon;timestamp;pressure;altitude;pressure_sealevel;temperature;humidity
24746;BME280;12845;52.042;6.838;2023-08-21T00:00:55;-18605.78;;;21.54;100.00
24746;BME280;12845;52.042;6.838;2023-08-21T00:03:21;-18605.22;;;21.52;100.00
24746;BME280;12845;52.042;6.838;2023-08-21T00:05:46;-18604.28;;;21.48;100.00
24746;BME280;12845;52.042;6.838;2023-08-21T00:08:11;-18597.75;;;21.24;100.00
24746;BME280;12845;52.042;6.838;2023-08-21T00:10:37;-18601.00;;;21.36;100.00
24746;BME280;12845;52.042;6.838;2023-08-21T00:13:04;-18606.19;;;21.55;100.00
24746;BME280;12845;52.042;6.838;2023-08-21T00:15:29;-18608.22;;;21.63;100.00
24746;BME280;12845;52.042;6.838;2023-08-21T00:17:55;-18601.97;;;21.39;100.00
24746;BME280;12845;52.042;6.838;2023-08-21T00:20:20;-18603.06;;;21.44;100.00
24746;BME280;12845;52.042;6.838;2023-08-21T00:22:45;-18598.84;;;21.28;100.00
24746;BME280;12845;52.042;6.838;2023-08-21T00:25:11;-18600.06;;;21.32;100.00
24746;BME280;12845;52.042;6.838;2023-08-21T00:27:36;-18595.97;;;21.17;100.00
24746;BME280;12845;52.042;6.838;2023-08-21T00:30:02;-18597.06;;;21.21;100.00
24746;BME280;12845;52.042;6.838;2023-08-21T00:32:28;-18596.38;;;21.18;100.00
24746;BME280;12845;52.042;6.838;2023-08-21T00:34:53;-18589.59;;;20.93;100.00
24746;BME280;12845;52.042;6.838;2023-08-21T00:37:18;-18588.09;;;20.87;100.00
24746;BME280;12845;52.042;6.838;2023-08-21T00:39:44;-18589.88;;;20.94;100.00
24746;BME280;12845;52.042;6.838;2023-08-21T00:42:10;-18593.66;;;21.08;100.00
24746;BME280;12845;52.042;6.838;2023-08-21T00:44:35;-18591.22;;;20.99;100.00
24746;BME280;12845;52.042;6.838;2023-08-21T00:47:00;-18591.78;;;21.01;100.00
24746;BME280;12845;52.042;6.838;2023-08-21T00:49:26;-18586.72;;;20.82;100.00
24746;BME280;12845;52.042;6.838;2023-08-21T00:51:53;-18586.19;;;20.80;100.00
24746;BME280;12845;52.042;6.838;2023-08-21T00:54:19;-18577.88;;;20.49;100.00
24746;BME280;12845;52.042;6.838;2023-08-21T00:56:45;-18581.84;;;20.64;100.00
24746;BME280;12845;52.042;6.838;2023-08-21T00:59:10;-18585.25;;;20.77;100.00
24746;BME280;12845;52.042;6.838;2023-08-21T01:01:36;-18580.34;;;20.58;100.00
24746;BME280;12845;52.042;6.838;2023-08-21T01:04:02;-18580.63;;;20.59;100.00
24746;BME280;12845;52.042;6.838;2023-08-21T01:06:28;-18585.25;;;20.77;100.00
24746;BME280;12845;52.042;6.838;2023-08-21T01:09:24;-18580.63;;;20.59;100.00
24746;BME280;12845;52.042;6.838;2023-08-21T01:14:51;-18582.09;;;20.65;100.00
24746;BME280;12845;52.042;6.838;2023-08-21T01:17:19;-18580.88;;;20.60;100.00
24746;BME280;12845;52.042;6.838;2023-08-21T01:19:48;-18580.22;;;20.58;100.00
24746;BME280;12845;52.042;6.838;2023-08-21T01:22:14;-18574.63;;;20.37;100.00
24746;BME280;12845;52.042;6.838;2023-08-21T01:24:40;-18571.63;;;20.25;100.00
24746;BME280;12845;52.042;6.838;2023-08-21T01:27:06;-18569.19;;;20.16;100.00
24746;BME280;12845;52.042;6.838;2023-08-21T01:29:34;-18575.03;;;20.38;100.00
24746;BME280;12845;52.042;6.838;2023-08-21T01:34:48;-18574.75;;;20.37;100.00
24746;BME280;12845;52.042;6.838;2023-08-21T01:37:17;-18570.69;;;20.22;100.00
24746;BME280;12845;52.042;6.838;2023-08-21T01:39:42;-18570.28;;;20.20;100.00
24746;BME280;12845;52.042;6.838;2023-08-21T01:42:08;-18572.44;;;20.28;100.00
24746;BME280;12845;52.042;6.838;2023-08-21T01:44:33;-18571.63;;;20.25;100.00
24746;BME280;12845;52.042;6.838;2023-08-21T01:46:58;-18574.34;;;20.36;100.00
24746;BME280;12845;52.042;6.838;2023-08-21T01:49:24;-18576.13;;;20.42;100.00
24746;BME280;12845;52.042;6.838;2023-08-21T01:51:49;-18575.44;;;20.40;100.00
24746;BME280;12845;52.042;6.838;2023-08-21T01:54:14;-18570.13;;;20.20;100.00
24746;BME280;12845;52.042;6.838;2023-08-21T01:56:40;-18569.03;;;20.16;100.00
24746;BME280;12845;52.042;6.838;2023-08-21T01:59:05;-18570.00;;;20.19;100.00
24746;BME280;12845;52.042;6.838;2023-08-21T02:01:32;-18573.41;;;20.32;100.00
24746;BME280;12845;52.042;6.838;2023-08-21T02:03:57;-18574.91;;;20.38;100.00
24746;BME280;12845;52.042;6.838;2023-08-21T02:06:23;-18574.47;;;20.36;100.00
24746;BME280;12845;52.042;6.838;2023-08-21T02:08:48;-18572.59;;;20.29;100.00
24746;BME280;12845;52.042;6.838;2023-08-21T02:11:14;-18571.63;;;20.25;100.00
24746;BME280;12845;52.042;6.838;2023-08-21T02:13:39;-18570.00;;;20.19;100.00
24746;BME280;12845;52.042;6.838;2023-08-21T02:16:05;-18572.59;;;20.29;100.00
24746;BME280;12845;52.042;6.838;2023-08-21T02:18:30;-18569.03;;;20.16;100.00
24746;BME280;12845;52.042;6.838;2023-08-21T02:20:55;-18571.50;;;20.25;100.00
24746;BME280;12845;52.042;6.838;2023-08-21T02:23:21;-18574.22;;;20.35;100.00
24746;BME280;12845;52.042;6.838;2023-08-21T02:25:46;-18569.31;;;20.17;100.00
24746;BME280;12845;52.042;6.838;2023-08-21T02:28:14;-18571.22;;;20.24;100.00
24746;BME280;12845;52.042;6.838;2023-08-21T02:30:42;-18570.41;;;20.21;100.00
24746;BME280;12845;52.042;6.838;2023-08-21T02:33:07;-18572.59;;;20.29;100.00
24746;BME280;12845;52.042;6.838;2023-08-21T02:35:33;-18566.19;;;20.05;100.00
24746;BME280;12845;52.042;6.838;2023-08-21T02:37:58;-18567.13;;;20.09;100.00
24746;BME280;12845;52.042;6.838;2023-08-21T02:40:24;-18570.41;;;20.21;100.00
24746;BME280;12845;52.042;6.838;2023-08-21T02:42:49;-18574.22;;;20.35;100.00
24746;BME280;12845;52.042;6.838;2023-08-21T02:45:14;-18572.84;;;20.30;100.00
24746;BME280;12845;52.042;6.838;2023-08-21T02:47:40;-18571.09;;;20.23;100.00
24746;BME280;12845;52.042;6.838;2023-08-21T02:50:07;-18570.13;;;20.20;100.00
24746;BME280;12845;52.042;6.838;2023-08-21T02:52:33;-18576.41;;;20.43;100.00
24746;BME280;12845;52.042;6.838;2023-08-21T02:54:59;-18574.75;;;20.37;100.00
24746;BME280;12845;52.042;6.838;2023-08-21T02:57:25;-18570.94;;;20.23;100.00
24746;BME280;12845;52.042;6.838;2023-08-21T02:59:51;-18570.94;;;20.23;100.00
24746;BME280;12845;52.042;6.838;2023-08-21T03:02:17;-18576.78;;;20.45;100.00
24746;BME280;12845;52.042;6.838;2023-08-21T03:04:42;-18575.31;;;20.39;100.00
24746;BME280;12845;52.042;6.838;2023-08-21T03:07:08;-18576.41;;;20.43;100.00
24746;BME280;12845;52.042;6.838;2023-08-21T03:09:33;-18579.38;;;20.55;100.00
24746;BME280;12845;52.042;6.838;2023-08-21T03:11:59;-18576.94;;;20.45;100.00
24746;BME280;12845;52.042;6.838;2023-08-21T03:14:26;-18576.41;;;20.43;100.00
24746;BME280;12845;52.042;6.838;2023-08-21T03:16:52;-18573.13;;;20.31;100.00
24746;BME280;12845;52.042;6.838;2023-08-21T03:19:17;-18574.75;;;20.37;100.00
24746;BME280;12845;52.042;6.838;2023-08-21T03:21:43;-18579.13;;;20.54;100.00
24746;BME280;12845;52.042;6.838;2023-08-21T03:24:08;-18573.53;;;20.33;100.00
24746;BME280;12845;52.042;6.838;2023-08-21T03:26:34;-18573.53;;;20.33;100.00
24746;BME280;12845;52.042;6.838;2023-08-21T03:28:59;-18570.81;;;20.22;100.00
24746;BME280;12845;52.042;6.838;2023-08-21T03:31:25;-18568.78;;;20.15;100.00
24746;BME280;12845;52.042;6.838;2023-08-21T03:33:50;-18573.00;;;20.31;100.00
24746;BME280;12845;52.042;6.838;2023-08-21T03:36:15;-18572.03;;;20.27;100.00
24746;BME280;12845;52.042;6.838;2023-08-21T03:38:41;-18572.84;;;20.30;100.00
24746;BME280;12845;52.042;6.838;2023-08-21T03:41:06;-18570.94;;;20.23;100.00
24746;BME280;12845;52.042;6.838;2023-08-21T03:43:32;-18576.41;;;20.43;100.00
24746;BME280;12845;52.042;6.838;2023-08-21T03:45:57;-18578.97;;;20.53;100.00
24746;BME280;12845;52.042;6.838;2023-08-21T03:48:23;-18578.97;;;20.53;100.00
24746;BME280;12845;52.042;6.838;2023-08-21T03:50:49;-18576.94;;;20.45;100.00
24746;BME280;12845;52.042;6.838;2023-08-21T03:53:14;-18575.56;;;20.40;100.00
24746;BME280;12845;52.042;6.838;2023-08-21T03:55:40;-18576.94;;;20.45;100.00
24746;BME280;12845;52.042;6.838;2023-08-21T03:58:05;-18572.31;;;20.28;100.00
24746;BME280;12845;52.042;6.838;2023-08-21T04:00:31;-18569.31;;;20.17;100.00
24746;BME280;12845;52.042;6.838;2023-08-21T04:02:57;-18569.03;;;20.16;100.00
24746;BME280;12845;52.042;6.838;2023-08-21T04:05:22;-18568.78;;;20.15;100.00
24746;BME280;12845;52.042;6.838;2023-08-21T04:07:48;-18570.28;;;20.20;100.00
24746;BME280;12845;52.042;6.838;2023-08-21T04:10:13;-18569.59;;;20.18;100.00
24746;BME280;12845;52.042;6.838;2023-08-21T04:12:39;-18569.03;;;20.16;100.00
24746;BME280;12845;52.042;6.838;2023-08-21T04:15:04;-18566.88;;;20.08;100.00
24746;BME280;12845;52.042;6.838;2023-08-21T04:17:31;-18567.13;;;20.09;100.00
24746;BME280;12845;52.042;6.838;2023-08-21T04:19:57;-18571.09;;;20.23;100.00
24746;BME280;12845;52.042;6.838;2023-08-21T04:22:22;-18571.75;;;20.26;100.00
24746;BME280;12845;52.042;6.838;2023-08-21T04:24:48;-18570.69;;;20.22;100.00
24746;BME280;12845;52.042;6.838;2023-08-21T04:27:13;-18568.22;;;20.13;100.00
24746;BME280;12845;52.042;6.838;2023-08-21T04:29:39;-18563.19;;;19.94;100.00
24746;BME280;12845;52.042;6.838;2023-08-21T04:32:04;-18563.47;;;19.95;100.00
24746;BME280;12845;52.042;6.838;2023-08-21T04:34:32;-18567.97;;;20.12;100.00
24746;BME280;12845;52.042;6.838;2023-08-21T04:36:57;-18568.09;;;20.12;100.00
24746;BME280;12845;52.042;6.838;2023-08-21T04:39:22;-18568.78;;;20.15;100.00
24746;BME280;12845;52.042;6.838;2023-08-21T04:41:48;-18570.00;;;20.19;100.00
24746;BME280;12845;52.042;6.838;2023-08-21T04:44:13;-18569.03;;;20.16;100.00
24746;BME280;12845;52.042;6.838;2023-08-21T04:46:38;-18567.28;;;20.09;100.00
24746;BME280;12845;52.042;6.838;2023-08-21T04:49:04;-18565.78;;;20.03;100.00
24746;BME280;12845;52.042;6.838;2023-08-21T04:51:29;-18566.59;;;20.06;100.00
24746;BME280;12845;52.042;6.838;2023-08-21T04:53:54;-18566.88;;;20.08;100.00
24746;BME280;12845;52.042;6.838;2023-08-21T04:56:20;-18564.81;;;20.00;100.00
24746;BME280;12845;52.042;6.838;2023-08-21T04:58:45;-18564.69;;;19.99;100.00
24746;BME280;12845;52.042;6.838;2023-08-21T05:01:10;-18563.31;;;19.94;100.00
24746;BME280;12845;52.042;6.838;2023-08-21T05:03:36;-18564.00;;;19.97;100.00
24746;BME280;12845;52.042;6.838;2023-08-21T05:06:01;-18566.47;;;20.06;100.00
24746;BME280;12845;52.042;6.838;2023-08-21T05:08:26;-18570.81;;;20.22;100.00
24746;BME280;12845;52.042;6.838;2023-08-21T05:10:56;-18569.03;;;20.16;100.00
24746;BME280;12845;52.042;6.838;2023-08-21T05:13:22;-18569.44;;;20.17;100.00
24746;BME280;12845;52.042;6.838;2023-08-21T05:15:55;-18571.50;;;20.25;100.00
24746;BME280;12845;52.042;6.838;2023-08-21T05:18:22;-18574.75;;;20.37;100.00
24746;BME280;12845;52.042;6.838;2023-08-21T05:20:48;-18576.78;;;20.45;100.00
24746;BME280;12845;52.042;6.838;2023-08-21T05:23:14;-18579.13;;;20.54;100.00
24746;BME280;12845;52.042;6.838;2023-08-21T05:25:39;-18581.03;;;20.61;100.00
24746;BME280;12845;52.042;6.838;2023-08-21T05:28:06;-18582.09;;;20.65;100.00
24746;BME280;12845;52.042;6.838;2023-08-21T05:30:31;-18583.75;;;20.71;100.00
24746;BME280;12845;52.042;6.838;2023-08-21T05:32:56;-18582.53;;;20.66;100.00
24746;BME280;12845;52.042;6.838;2023-08-21T05:35:22;-18589.47;;;20.92;100.00
24746;BME280;12845;52.042;6.838;2023-08-21T05:37:47;-18591.78;;;21.01;100.00
24746;BME280;12845;52.042;6.838;2023-08-21T05:40:13;-18588.91;;;20.90;100.00
24746;BME280;12845;52.042;6.838;2023-08-21T05:42:38;-18592.31;;;21.03;100.00
24746;BME280;12845;52.042;6.838;2023-08-21T05:45:05;-18591.50;;;21.00;100.00
24746;BME280;12845;52.042;6.838;2023-08-21T05:47:30;-18599.09;;;21.29;100.00
24746;BME280;12845;52.042;6.838;2023-08-21T05:49:55;-18603.06;;;21.44;100.00
24746;BME280;12845;52.042;6.838;2023-08-21T05:52:22;-18606.59;;;21.57;100.00
24746;BME280;12845;52.042;6.838;2023-08-21T05:54:48;-18611.75;;;21.76;100.00
24746;BME280;12845;52.042;6.838;2023-08-21T05:57:14;-18615.28;;;21.90;100.00
24746;BME280;12845;52.042;6.838;2023-08-21T05:59:44;-18615.56;;;21.91;100.00
24746;BME280;12845;52.042;6.838;2023-08-21T06:02:10;-18621.00;;;22.11;100.00
24746;BME280;12845;52.042;6.838;2023-08-21T06:04:39;-18623.72;;;22.21;100.00
24746;BME280;12845;52.042;6.838;2023-08-21T06:07:04;-18626.28;;;22.31;100.00
24746;BME280;12845;52.042;6.838;2023-08-21T06:09:30;-18621.81;;;22.14;100.00
24746;BME280;12845;52.042;6.838;2023-08-21T06:11:56;-18620.44;;;22.09;100.00
24746;BME280;12845;52.042;6.838;2023-08-21T06:14:22;-18617.88;;;21.99;100.00
24746;BME280;12845;52.042;6.838;2023-08-21T06:16:56;-18615.44;;;21.90;100.00
24746;BME280;12845;52.042;6.838;2023-08-21T06:19:21;-18613.38;;;21.82;100.00
24746;BME280;12845;52.042;6.838;2023-08-21T06:21:47;-18615.44;;;21.90;100.00
24746;BME280;12845;52.042;6.838;2023-08-21T06:24:12;-18619.22;;;22.04;100.00
24746;BME280;12845;52.042;6.838;2023-08-21T06:26:37;-18622.91;;;22.18;100.00
24746;BME280;12845;52.042;6.838;2023-08-21T06:29:03;-18623.16;;;22.19;100.00
24746;BME280;12845;52.042;6.838;2023-08-21T06:31:28;-18626.97;;;22.34;100.00
24746;BME280;12845;52.042;6.838;2023-08-21T06:33:53;-18622.75;;;22.18;100.00
24746;BME280;12845;52.042;6.838;2023-08-21T06:36:19;-18624.25;;;22.23;100.00
24746;BME280;12845;52.042;6.838;2023-08-21T06:38:44;-18627.78;;;22.37;100.00
24746;BME280;12845;52.042;6.838;2023-08-21T06:41:10;-18626.44;;;22.32;100.00
24746;BME280;12845;52.042;6.838;2023-08-21T06:43:35;-18627.78;;;22.37;100.00
24746;BME280;12845;52.042;6.838;2023-08-21T06:46:01;-18631.19;;;22.49;100.00
24746;BME280;12845;52.042;6.838;2023-08-21T06:48:26;-18631.84;;;22.52;100.00
24746;BME280;12845;52.042;6.838;2023-08-21T06:50:52;-18633.91;;;22.60;100.00
24746;BME280;12845;52.042;6.838;2023-08-21T06:53:17;-18632.94;;;22.56;100.00
24746;BME280;12845;52.042;6.838;2023-08-21T06:55:44;-18635.78;;;22.67;100.00
24746;BME280;12845;52.042;6.838;2023-08-21T06:58:10;-18640.00;;;22.83;100.00
24746;BME280;12845;52.042;6.838;2023-08-21T07:00:36;-18638.09;;;22.75;100.00
24746;BME280;12845;52.042;6.838;2023-08-21T07:03:01;-18640.81;;;22.86;100.00
24746;BME280;12845;52.042;6.838;2023-08-21T07:05:28;-18636.75;;;22.70;100.00
24746;BME280;12845;52.042;6.838;2023-08-21T07:07:54;-18632.53;;;22.55;100.00
24746;BME280;12845;52.042;6.838;2023-08-21T07:10:20;-18630.91;;;22.48;100.00
24746;BME280;12845;52.042;6.838;2023-08-21T07:12:46;-18634.72;;;22.63;100.00
24746;BME280;12845;52.042;6.838;2023-08-21T07:15:11;-18637.28;;;22.72;100.00
24746;BME280;12845;52.042;6.838;2023-08-21T07:17:37;-18639.47;;;22.81;100.00
24746;BME280;12845;52.042;6.838;2023-08-21T07:20:02;-18642.44;;;22.92;100.00
24746;BME280;12845;52.042;6.838;2023-08-21T07:22:29;-18644.91;;;23.01;100.00
24746;BME280;12845;52.042;6.838;2023-08-21T07:24:54;-18646.53;;;23.07;100.00
24746;BME280;12845;52.042;6.838;2023-08-21T07:27:20;-18650.88;;;23.24;100.00
24746;BME280;12845;52.042;6.838;2023-08-21T07:29:45;-18654.66;;;23.38;100.00
24746;BME280;12845;52.042;6.838;2023-08-21T07:32:11;-18652.75;;;23.31;100.00
24746;BME280;12845;52.042;6.838;2023-08-21T07:34:36;-18652.91;;;23.31;100.00
24746;BME280;12845;52.042;6.838;2023-08-21T07:37:02;-18650.06;;;23.20;100.00
24746;BME280;12845;52.042;6.838;2023-08-21T07:39:27;-18650.31;;;23.22;100.00
24746;BME280;12845;52.042;6.838;2023-08-21T07:41:52;-18656.56;;;23.45;100.00
24746;BME280;12845;52.042;6.838;2023-08-21T07:44:18;-18656.69;;;23.46;100.00
24746;BME280;12845;52.042;6.838;2023-08-21T07:46:44;-18654.94;;;23.39;100.00
24746;BME280;12845;52.042;6.838;2023-08-21T07:49:09;-18660.34;;;23.59;100.00
24746;BME280;12845;52.042;6.838;2023-08-21T07:51:35;-18663.34;;;23.71;100.00
24746;BME280;12845;52.042;6.838;2023-08-21T07:54:01;-18658.19;;;23.51;100.00
24746;BME280;12845;52.042;6.838;2023-08-21T07:56:26;-18657.66;;;23.49;100.00
24746;BME280;12845;52.042;6.838;2023-08-21T07:58:51;-18662.25;;;23.67;100.00
24746;BME280;12845;52.042;6.838;2023-08-21T08:01:17;-18667.97;;;23.88;100.00
24746;BME280;12845;52.042;6.838;2023-08-21T08:03:42;-18663.88;;;23.73;100.00
24746;BME280;12845;52.042;6.838;2023-08-21T08:06:09;-18662.38;;;23.67;100.00
24746;BME280;12845;52.042;6.838;2023-08-21T08:08:34;-18666.31;;;23.82;100.00
24746;BME280;12845;52.042;6.838;2023-08-21T08:11:03;-18672.28;;;24.04;100.00
24746;BME280;12845;52.042;6.838;2023-08-21T08:13:29;-18677.44;;;24.24;100.00
24746;BME280;12845;52.042;6.838;2023-08-21T08:15:55;-18677.84;;;24.25;100.00
24746;BME280;12845;52.042;6.838;2023-08-21T08:18:20;-18686.78;;;24.59;100.00
24746;BME280;12845;52.042;6.838;2023-08-21T08:20:45;-18689.63;;;24.70;100.00
24746;BME280;12845;52.042;6.838;2023-08-21T08:23:11;-18691.13;;;24.75;100.00
24746;BME280;12845;52.042;6.838;2023-08-21T08:25:36;-18687.19;;;24.61;100.00
24746;BME280;12845;52.042;6.838;2023-08-21T08:28:02;-18686.94;;;24.60;100.00
24746;BME280;12845;52.042;6.838;2023-08-21T08:30:28;-18690.59;;;24.73;100.00
24746;BME280;12845;52.042;6.838;2023-08-21T08:32:53;-18691.94;;;24.79;100.00
24746;BME280;12845;52.042;6.838;2023-08-21T08:35:19;-18695.06;;;24.90;100.00
24746;BME280;12845;52.042;6.838;2023-08-21T08:37:44;-18693.97;;;24.86;100.00
24746;BME280;12845;52.042;6.838;2023-08-21T08:40:11;-18696.00;;;24.94;100.00
24746;BME280;12845;52.042;6.838;2023-08-21T08:42:36;-18701.97;;;25.16;100.00
24746;BME280;12845;52.042;6.838;2023-08-21T08:45:03;-18705.22;;;25.29;100.00
24746;BME280;12845;52.042;6.838;2023-08-21T08:47:32;-18704.00;;;25.24;100.00
24746;BME280;12845;52.042;6.838;2023-08-21T08:49:59;-18705.88;;;25.31;100.00
24746;BME280;12845;52.042;6.838;2023-08-21T08:52:26;-18712.78;;;25.57;98.66
24746;BME280;12845;52.042;6.838;2023-08-21T08:54:54;-18714.56;;;25.64;100.00
24746;BME280;12845;52.042;6.838;2023-08-21T08:57:20;-18719.56;;;25.83;96.58
24746;BME280;12845;52.042;6.838;2023-08-21T08:59:46;-18717.25;;;25.74;93.82
24746;BME280;12845;52.042;6.838;2023-08-21T09:02:11;-18722.13;;;25.93;91.81
24746;BME280;12845;52.042;6.838;2023-08-21T09:04:37;-18723.47;;;25.98;91.10
24746;BME280;12845;52.042;6.838;2023-08-21T09:07:12;-18720.22;;;25.85;96.54
24746;BME280;12845;52.042;6.838;2023-08-21T09:09:41;-18721.31;;;25.90;93.03
24746;BME280;12845;52.042;6.838;2023-08-21T09:12:11;-18725.91;;;26.07;91.15
24746;BME280;12845;52.042;6.838;2023-08-21T09:14:39;-18719.97;;;25.84;87.49
24746;BME280;12845;52.042;6.838;2023-08-21T09:17:04;-18717.25;;;25.74;91.83
24746;BME280;12845;52.042;6.838;2023-08-21T09:19:30;-18719.69;;;25.83;89.18
24746;BME280;12845;52.042;6.838;2023-08-21T09:21:55;-18722.00;;;25.92;91.09
24746;BME280;12845;52.042;6.838;2023-08-21T09:24:21;-18721.19;;;25.89;94.35
24746;BME280;12845;52.042;6.838;2023-08-21T09:26:46;-18730.09;;;26.23;91.37
24746;BME280;12845;52.042;6.838;2023-08-21T09:29:12;-18735.78;;;26.44;86.89
24746;BME280;12845;52.042;6.838;2023-08-21T09:31:37;-18734.56;;;26.40;82.90
24746;BME280;12845;52.042;6.838;2023-08-21T09:34:04;-18734.84;;;26.41;83.29
24746;BME280;12845;52.042;6.838;2023-08-21T09:36:33;-18738.09;;;26.53;80.39
24746;BME280;12845;52.042;6.838;2023-08-21T09:38:59;-18738.63;;;26.55;80.14
24746;BME280;12845;52.042;6.838;2023-08-21T09:41:26;-18741.31;;;26.65;80.19
24746;BME280;12845;52.042;6.838;2023-08-21T09:43:52;-18742.00;;;26.68;76.21
24746;BME280;12845;52.042;6.838;2023-08-21T09:46:23;-18741.59;;;26.66;82.69
24746;BME280;12845;52.042;6.838;2023-08-21T09:48:49;-18745.09;;;26.80;83.86
24746;BME280;12845;52.042;6.838;2023-08-21T09:51:16;-18754.56;;;27.15;76.57
24746;BME280;12845;52.042;6.838;2023-08-21T09:53:42;-18750.50;;;27.00;76.88
24746;BME280;12845;52.042;6.838;2023-08-21T09:56:07;-18752.25;;;27.07;77.80
24746;BME280;12845;52.042;6.838;2023-08-21T09:58:35;-18755.38;;;27.18;70.51
24746;BME280;12845;52.042;6.838;2023-08-21T10:01:04;-18759.28;;;27.33;69.83
24746;BME280;12845;52.042;6.838;2023-08-21T10:03:36;-18757.53;;;27.27;69.92
24746;BME280;12845;52.042;6.838;2023-08-21T10:06:03;-18761.06;;;27.40;68.62
24746;BME280;12845;52.042;6.838;2023-08-21T10:08:28;-18761.19;;;27.40;65.42
24746;BME280;12845;52.042;6.838;2023-08-21T10:10:55;-18759.16;;;27.33;66.42
24746;BME280;12845;52.042;6.838;2023-08-21T10:13:21;-18756.88;;;27.24;62.88
24746;BME280;12845;52.042;6.838;2023-08-21T10:15:47;-18761.59;;;27.42;65.30
24746;BME280;12845;52.042;6.838;2023-08-21T10:18:30;-18764.81;;;27.54;67.12
24746;BME280;12845;52.042;6.838;2023-08-21T10:20:56;-18766.44;;;27.60;66.93
24746;BME280;12845;52.042;6.838;2023-08-21T10:23:25;-18771.03;;;27.78;67.94
24746;BME280;12845;52.042;6.838;2023-08-21T10:25:58;-18775.75;;;27.96;66.72
24746;BME280;12845;52.042;6.838;2023-08-21T10:28:24;-18772.25;;;27.82;67.97
24746;BME280;12845;52.042;6.838;2023-08-21T10:30:50;-18775.34;;;27.94;72.34
24746;BME280;12845;52.042;6.838;2023-08-21T10:33:15;-18765.38;;;27.56;67.35
24746;BME280;12845;52.042;6.838;2023-08-21T10:35:40;-18774.56;;;27.91;67.99
24746;BME280;12845;52.042;6.838;2023-08-21T10:38:10;-18776.72;;;27.99;72.10
24746;BME280;12845;52.042;6.838;2023-08-21T10:40:37;-18784.25;;;28.28;74.64
24746;BME280;12845;52.042;6.838;2023-08-21T10:43:03;-18780.34;;;28.13;61.84
24746;BME280;12845;52.042;6.838;2023-08-21T10:45:29;-18785.06;;;28.31;62.03
24746;BME280;12845;52.042;6.838;2023-08-21T10:47:58;-18789.38;;;28.47;64.83
24746;BME280;12845;52.042;6.838;2023-08-21T10:50:24;-18779.94;;;28.11;58.54
24746;BME280;12845;52.042;6.838;2023-08-21T10:52:52;-18781.28;;;28.17;60.51
24746;BME280;12845;52.042;6.838;2023-08-21T10:55:18;-18780.09;;;28.12;64.36
24746;BME280;12845;52.042;6.838;2023-08-21T10:57:47;-18780.34;;;28.13;66.50
24746;BME280;12845;52.042;6.838;2023-08-21T11:00:15;-18771.59;;;27.80;63.91
24746;BME280;12845;52.042;6.838;2023-08-21T11:02:43;-18772.53;;;27.83;63.35
24746;BME280;12845;52.042;6.838;2023-08-21T11:05:10;-18774.94;;;27.93;65.03
24746;BME280;12845;52.042;6.838;2023-08-21T11:07:41;-18782.09;;;28.20;63.54
24746;BME280;12845;52.042;6.838;2023-08-21T11:10:11;-18775.63;;;27.95;59.21
24746;BME280;12845;52.042;6.838;2023-08-21T11:12:38;-18778.31;;;28.05;61.55
24746;BME280;12845;52.042;6.838;2023-08-21T11:15:05;-18775.22;;;27.94;64.52
24746;BME280;12845;52.042;6.838;2023-08-21T11:17:30;-18781.84;;;28.19;63.51
24746;BME280;12845;52.042;6.838;2023-08-21T11:19:56;-18783.44;;;28.25;62.80
24746;BME280;12845;52.042;6.838;2023-08-21T11:22:28;-18783.72;;;28.26;63.33
24746;BME280;12845;52.042;6.838;2023-08-21T11:24:53;-18787.22;;;28.39;58.91
24746;BME280;12845;52.042;6.838;2023-08-21T11:27:22;-18798.03;;;28.80;65.19
24746;BME280;12845;52.042;6.838;2023-08-21T11:29:49;-18802.59;;;28.97;58.08
24746;BME280;12845;52.042;6.838;2023-08-21T11:32:20;-18806.78;;;29.13;60.26
24746;BME280;12845;52.042;6.838;2023-08-21T11:34:54;-18808.25;;;29.19;59.81
24746;BME280;12845;52.042;6.838;2023-08-21T11:37:21;-18811.34;;;29.31;60.24
24746;BME280;12845;52.042;6.838;2023-08-21T11:39:49;-18809.06;;;29.22;56.38
24746;BME280;12845;52.042;6.838;2023-08-21T11:42:15;-18813.25;;;29.38;56.83
24746;BME280;12845;52.042;6.838;2023-08-21T11:44:49;-18810.56;;;29.28;55.45
24746;BME280;12845;52.042;6.838;2023-08-21T11:47:17;-18809.88;;;29.25;53.96
24746;BME280;12845;52.042;6.838;2023-08-21T11:49:43;-18812.97;;;29.37;54.39
24746;BME280;12845;52.042;6.838;2023-08-21T11:52:10;-18808.25;;;29.19;53.88
24746;BME280;12845;52.042;6.838;2023-08-21T11:54:37;-18813.66;;;29.39;56.77
24746;BME280;12845;52.042;6.838;2023-08-21T11:57:04;-18810.41;;;29.27;53.84
24746;BME280;12845;52.042;6.838;2023-08-21T11:59:30;-18814.72;;;29.43;54.73
24746;BME280;12845;52.042;6.838;2023-08-21T12:01:55;-18809.59;;;29.24;52.96
24746;BME280;12845;52.042;6.838;2023-08-21T12:04:21;-18811.91;;;29.33;51.42
24746;BME280;12845;52.042;6.838;2023-08-21T12:06:46;-18809.88;;;29.25;50.47
24746;BME280;12845;52.042;6.838;2023-08-21T12:09:12;-18808.53;;;29.20;55.65
24746;BME280;12845;52.042;6.838;2023-08-21T12:11:37;-18810.81;;;29.29;51.77
24746;BME280;12845;52.042;6.838;2023-08-21T12:14:06;-18818.50;;;29.58;53.10
24746;BME280;12845;52.042;6.838;2023-08-21T12:16:31;-18812.72;;;29.36;50.73
24746;BME280;12845;52.042;6.838;2023-08-21T12:18:57;-18816.88;;;29.52;52.71
24746;BME280;12845;52.042;6.838;2023-08-21T12:21:26;-18813.25;;;29.38;47.89
24746;BME280;12845;52.042;6.838;2023-08-21T12:23:51;-18819.56;;;29.62;48.89
24746;BME280;12845;52.042;6.838;2023-08-21T12:26:16;-18822.94;;;29.75;52.63
24746;BME280;12845;52.042;6.838;2023-08-21T12:28:46;-18821.47;;;29.69;46.54
24746;BME280;12845;52.042;6.838;2023-08-21T12:31:12;-18828.72;;;29.97;48.39
24746;BME280;12845;52.042;6.838;2023-08-21T12:33:38;-18830.63;;;30.04;50.18
24746;BME280;12845;52.042;6.838;2023-08-21T12:36:03;-18838.00;;;30.32;48.45
24746;BME280;12845;52.042;6.838;2023-08-21T12:38:29;-18842.06;;;30.47;48.70
24746;BME280;12845;52.042;6.838;2023-08-21T12:40:54;-18834.91;;;30.20;47.52
24746;BME280;12845;52.042;6.838;2023-08-21T12:43:20;-18836.53;;;30.26;49.31